Time;durP1;ratioP1;P1;durP2;ratioP2;P2;SDS_P1;SDS_P2;PMS_P1;PMS_P2;Temp;Humidity;BMP_temperature;BMP_pressure;BME280_temperature;BME280_humidity;BME280_pressure;Samples;Min_cycle;Max_cycle;Signal;HPM_P1;HPM_P2
2023/01/14 00:01:58;;;;;;;18.52;7.88;;;;;;;-1.12;62.85;100518.19;5074227;28;20361;-57
2023/01/14 00:04:23;;;;;;;19.23;8.15;;;;;;;-1.10;63.33;100519.91;5074668;28;20461;-53
2023/01/14 00:06:50;;;;;;;18.30;7.90;;;;;;;-1.14;63.41;100515.59;5074824;28;20345;-52
2023/01/14 00:09:15;;;;;;;20.63;8.50;;;;;;;-1.14;63.00;100507.72;5074450;28;20040;-54
2023/01/14 00:11:47;;;;;;;19.52;8.68;;;;;;;-1.11;62.71;100497.13;5075129;28;20037;-55
2023/01/14 00:14:24;;;;;;;17.98;7.80;;;;;;;-1.04;63.05;100511.03;5075544;28;20049;-53
2023/01/14 00:16:51;;;;;;;16.88;8.55;;;;;;;-1.12;63.35;100515.56;5056645;28;20028;-54
2023/01/14 00:19:18;;;;;;;19.65;9.02;;;;;;;-1.09;63.18;100515.47;5074799;28;20124;-53
2023/01/14 00:21:44;;;;;;;19.65;8.23;;;;;;;-1.13;63.13;100508.56;5075593;28;20483;-56
2023/01/14 00:24:11;;;;;;;21.35;8.88;;;;;;;-1.10;63.13;100504.13;5075123;28;20032;-57
2023/01/14 00:26:37;;;;;;;21.17;8.90;;;;;;;-1.11;63.36;100512.91;5074409;28;20078;-54
2023/01/14 00:29:02;;;;;;;20.83;8.88;;;;;;;-1.11;63.33;100518.16;5074959;28;20025;-53
2023/01/14 00:31:28;;;;;;;17.48;8.70;;;;;;;-1.16;63.28;100493.75;5075467;28;20098;-58
2023/01/14 00:33:56;;;;;;;18.27;8.98;;;;;;;-1.16;63.71;100488.50;5074929;28;20053;-51
2023/01/14 00:36:24;;;;;;;21.13;9.00;;;;;;;-1.05;63.42;100491.75;5073788;28;20045;-51
2023/01/14 00:38:50;;;;;;;25.50;9.50;;;;;;;-1.02;62.90;100499.56;5074434;28;20054;-55
2023/01/14 00:41:20;;;;;;;23.52;9.20;;;;;;;-1.12;63.68;100495.41;5075005;28;20051;-54
2023/01/14 00:43:48;;;;;;;27.65;9.38;;;;;;;-1.10;63.68;100506.75;5074875;28;20047;-52
2023/01/14 00:46:17;;;;;;;20.50;8.48;;;;;;;-1.03;62.91;100497.81;5073988;28;20040;-52
2023/01/14 00:48:43;;;;;;;21.25;8.48;;;;;;;-1.09;63.91;100491.84;5074233;28;20052;-55
2023/01/14 00:51:10;;;;;;;17.52;8.57;;;;;;;-0.99;63.26;100496.00;5074490;28;20377;-59
2023/01/14 00:53:37;;;;;;;23.75;9.23;;;;;;;-1.05;62.93;100502.25;5054186;28;20064;-61
2023/01/14 00:56:03;;;;;;;20.42;8.68;;;;;;;-1.04;63.38;100493.47;5054551;28;20044;-59
2023/01/14 00:58:29;;;;;;;18.13;8.90;;;;;;;-1.06;63.45;100495.28;5063519;28;20048;-58
2023/01/14 01:00:54;;;;;;;20.70;9.80;;;;;;;-1.06;63.67;100487.38;5073844;28;20068;-57
2023/01/14 01:03:21;;;;;;;20.83;9.25;;;;;;;-1.01;63.49;100477.63;5074186;28;20035;-58
2023/01/14 01:05:47;;;;;;;21.83;9.38;;;;;;;-0.99;63.47;100479.34;5073946;28;20089;-57
2023/01/14 01:08:15;;;;;;;19.33;8.77;;;;;;;-1.02;63.33;100482.94;5073207;28;20028;-60
2023/01/14 01:10:45;;;;;;;23.30;8.93;;;;;;;-0.95;63.51;100481.03;5074255;28;20115;-56
2023/01/14 01:13:12;;;;;;;22.38;8.43;;;;;;;-0.97;63.47;100483.69;5073554;28;20032;-54
2023/01/14 01:15:39;;;;;;;22.90;8.65;;;;;;;-0.96;63.82;100480.16;5074023;28;20024;-53
2023/01/14 01:18:06;;;;;;;22.23;9.20;;;;;;;-1.04;63.71;100467.19;5073805;28;20041;-52
2023/01/14 01:20:32;;;;;;;21.50;8.73;;;;;;;-0.97;63.76;100482.81;5073309;28;20032;-54
2023/01/14 01:22:58;;;;;;;24.65;9.38;;;;;;;-1.01;64.11;100475.00;5073979;28;20028;-52
2023/01/14 01:25:24;;;;;;;23.67;9.15;;;;;;;-0.98;64.29;100470.56;5073718;28;20055;-52
2023/01/14 01:27:50;;;;;;;26.50;9.77;;;;;;;-0.96;64.37;100468.81;5073064;28;20025;-53
2023/01/14 01:30:16;;;;;;;28.33;9.82;;;;;;;-0.96;64.18;100476.69;5073957;28;20369;-54
2023/01/14 01:32:41;;;;;;;18.92;9.13;;;;;;;-0.94;64.23;100475.72;5073697;28;20029;-52
2023/01/14 01:35:07;;;;;;;24.55;9.63;;;;;;;-0.90;64.43;100472.13;5073218;28;20044;-66
2023/01/14 01:37:33;;;;;;;26.75;9.90;;;;;;;-0.92;64.58;100466.03;5073552;28;20073;-55
2023/01/14 01:39:58;;;;;;;20.75;9.25;;;;;;;-0.89;64.21;100473.84;5073946;28;20123;-57
2023/01/14 01:42:28;;;;;;;18.50;9.50;;;;;;;-0.85;63.94;100465.91;5073274;28;20025;-55
2023/01/14 01:44:53;;;;;;;27.20;8.73;;;;;;;-0.85;63.96;100477.28;5073280;28;20036;-56
2023/01/14 01:47:22;;;;;;;21.13;10.30;;;;;;;-0.89;64.16;100467.75;5073766;28;20484;-57
2023/01/14 01:49:48;;;;;;;21.00;9.88;;;;;;;-0.96;64.31;100463.53;5072866;28;20419;-54
2023/01/14 01:52:26;;;;;;;26.30;9.65;;;;;;;-0.89;64.45;100467.75;5073086;28;20028;-51
2023/01/14 01:54:58;;;;;;;27.42;9.80;;;;;;;-0.95;64.47;100460.88;5072935;28;20036;-54
2023/01/14 01:57:24;;;;;;;25.27;9.55;;;;;;;-0.85;63.41;100471.16;5072983;28;20028;-51
2023/01/14 01:59:53;;;;;;;24.35;9.82;;;;;;;-1.01;64.30;100466.28;5071548;28;20033;-53
2023/01/14 02:02:20;;;;;;;21.77;10.07;;;;;;;-0.93;63.65;100466.09;5072368;28;20071;-51
2023/01/14 02:04:46;;;;;;;21.45;9.75;;;;;;;-1.04;64.25;100469.81;5072918;28;20414;-58
2023/01/14 02:07:20;;;;;;;23.05;9.23;;;;;;;-0.98;64.71;100466.19;5073425;28;20111;-51
2023/01/14 02:09:47;;;;;;;17.77;9.20;;;;;;;-1.00;64.31;100462.75;5072765;28;20115;-56
2023/01/14 02:12:43;;;;;;;26.33;9.45;;;;;;;-0.93;64.01;100459.06;5072601;28;20410;-51
2023/01/14 02:15:33;;;;;;;18.75;10.00;;;;;;;-0.90;64.22;100463.41;5072446;28;20154;-52
2023/01/14 02:18:13;;;;;;;17.58;8.95;;;;;;;-1.03;64.34;100458.41;5072879;28;20036;-52
2023/01/14 02:20:49;;;;;;;22.88;9.95;;;;;;;-1.14;64.13;100441.16;5072395;28;20116;-55
2023/01/14 02:23:23;;;;;;;21.15;10.38;;;;;;;-1.04;64.44;100468.97;5072310;28;20068;-52
2023/01/14 02:26:08;;;;;;;21.13;9.82;;;;;;;-1.01;64.29;100480.25;5072616;28;20038;-56
2023/01/14 02:28:44;;;;;;;23.65;9.30;;;;;;;-0.98;64.67;100471.44;5072982;28;20036;-56
2023/01/14 02:31:14;;;;;;;;;;;;;;;-0.77;64.12;100474.50;5073164;28;20052;-53
2023/01/14 02:33:46;;;;;;;21.30;9.63;;;;;;;-0.81;63.70;100467.59;5072543;28;19983;-53
2023/01/14 02:36:24;;;;;;;23.90;11.20;;;;;;;-0.96;63.72;100477.53;5071730;28;20032;-50
2023/01/14 02:39:01;;;;;;;20.63;10.27;;;;;;;-1.13;64.27;100451.63;5070869;28;20032;-53
2023/01/14 02:44:40;;;;;;;24.08;10.63;;;;;;;-1.04;64.06;100488.22;5071764;28;20032;-62
2023/01/14 02:47:16;;;;;;;21.20;11.02;;;;;;;-1.07;64.54;100464.63;5071755;28;20036;-61
2023/01/14 02:49:44;;;;;;;22.20;10.10;;;;;;;-1.02;64.45;100481.16;5070356;28;20156;-62
2023/01/14 02:52:11;;;;;;;22.00;11.13;;;;;;;-1.06;64.35;100474.25;5071553;28;20360;-60
2023/01/14 02:54:37;;;;;;;20.30;10.70;;;;;;;-1.13;65.12;100472.66;5071171;28;20058;-59
2023/01/14 02:57:07;;;;;;;19.00;10.80;;;;;;;-1.08;64.86;100478.66;5071223;28;20468;-61
2023/01/14 02:59:43;;;;;;;19.08;10.43;;;;;;;-1.03;64.28;100479.44;5071177;28;20040;-60
2023/01/14 03:02:15;;;;;;;23.40;10.10;;;;;;;-1.06;64.46;100469.00;5071275;28;20064;-60
2023/01/14 03:04:43;;;;;;;24.80;10.30;;;;;;;-1.09;64.90;100469.06;5070374;28;20029;-62
2023/01/14 03:07:11;;;;;;;17.58;9.85;;;;;;;-1.07;64.97;100471.66;5071402;28;20037;-62
2023/01/14 03:09:44;;;;;;;22.60;11.05;;;;;;;-1.07;64.78;100480.41;5069936;28;20025;-62
2023/01/14 03:12:22;;;;;;;21.20;10.05;;;;;;;-1.08;64.86;100480.44;5071281;28;20405;-60
2023/01/14 03:14:56;;;;;;;20.52;10.77;;;;;;;-1.09;64.82;100471.69;5057394;28;20081;-61
2023/01/14 03:17:30;;;;;;;23.67;10.73;;;;;;;-1.10;64.52;100482.22;5071065;28;20411;-59
2023/01/14 03:20:08;;;;;;;21.63;10.65;;;;;;;-1.08;64.80;100476.03;5071303;28;20040;-59
2023/01/14 03:22:34;;;;;;;21.58;10.70;;;;;;;-1.14;64.86;100468.31;5070405;28;20391;-58
2023/01/14 03:25:03;;;;;;;20.13;11.00;;;;;;;-1.16;64.77;100464.84;5070731;28;20036;-57
2023/01/14 03:27:36;;;;;;;18.33;10.32;;;;;;;-1.12;64.74;100460.38;5070486;28;20116;-58
2023/01/14 03:30:17;;;;;;;27.85;11.82;;;;;;;-0.99;64.58;100467.09;5070830;28;20048;-60
2023/01/14 03:32:48;;;;;;;22.15;11.70;;;;;;;-1.13;64.74;100459.53;5071206;28;20021;-57
2023/01/14 03:35:23;;;;;;;20.20;11.20;;;;;;;-1.56;64.53;100381.63;5026365;28;1284329;-63
2023/01/14 03:37:56;;;;;;;19.67;11.25;;;;;;;-1.14;64.73;100460.41;5071544;28;20269;-57
2023/01/14 03:40:25;;;;;;;26.23;10.98;;;;;;;-1.26;65.06;100458.03;5071472;28;20047;-56
2023/01/14 03:42:58;;;;;;;21.88;11.52;;;;;;;-1.14;64.55;100476.19;5071891;28;20029;-55
2023/01/14 03:45:32;;;;;;;23.92;11.63;;;;;;;-1.14;64.89;100465.69;5071489;28;20070;-52
2023/01/14 03:47:57;;;;;;;21.48;11.40;;;;;;;-1.36;64.40;100429.34;5071462;28;20111;-57
2023/01/14 03:50:28;;;;;;;22.20;11.48;;;;;;;-1.14;64.74;100462.16;5071664;28;20029;-58
2023/01/14 03:53:18;;;;;;;25.80;11.20;;;;;;;-1.12;64.84;100460.38;5072192;28;20033;-56
2023/01/14 03:55:53;;;;;;;20.25;9.85;;;;;;;-1.11;64.18;100459.47;5071496;28;20032;-60
2023/01/14 03:58:39;;;;;;;22.17;11.35;;;;;;;-1.08;64.09;100456.81;5071682;28;20505;-56
2023/01/14 04:01:11;;;;;;;27.27;11.85;;;;;;;-1.20;64.32;100464.03;5051854;28;20204;-62
2023/01/14 04:03:37;;;;;;;23.65;11.30;;;;;;;-1.26;64.82;100466.81;5060065;28;20025;-58
2023/01/14 04:06:03;;;;;;;22.52;11.23;;;;;;;-1.23;64.36;100469.38;5070073;28;20047;-58
2023/01/14 04:08:28;;;;;;;20.75;11.10;;;;;;;-1.25;64.63;100463.28;5070314;28;20047;-60
2023/01/14 04:10:54;;;;;;;25.08;12.40;;;;;;;-1.26;64.57;100458.91;5069632;28;20035;-57
2023/01/14 04:16:03;;;;;;;22.08;11.90;;;;;;;-1.40;64.25;100438.19;5068113;28;20028;-60
2023/01/14 04:18:29;;;;;;;26.98;11.35;;;;;;;-1.19;64.51;100473.66;5060869;28;20040;-58
2023/01/14 04:20:55;;;;;;;29.70;12.55;;;;;;;-1.16;64.32;100467.47;5061360;28;20055;-53
2023/01/14 04:23:20;;;;;;;23.13;12.00;;;;;;;-1.21;64.29;100464.94;5071001;28;20037;-51
2023/01/14 04:25:45;;;;;;;25.80;12.77;;;;;;;-1.19;64.62;100475.44;5070032;28;20113;-55
2023/01/14 04:28:11;;;;;;;24.95;11.95;;;;;;;-1.17;64.81;100469.22;5073869;28;20032;-54
2023/01/14 04:30:37;;;;;;;24.55;12.32;;;;;;;-1.16;64.37;100476.22;5070892;28;20474;-53
2023/01/14 04:33:02;;;;;;;25.23;12.38;;;;;;;-1.21;64.62;100464.94;5073785;28;20021;-53
2023/01/14 04:35:28;;;;;;;22.77;11.80;;;;;;;-1.26;65.04;100453.66;5071793;28;20067;-54
2023/01/14 04:37:54;;;;;;;27.27;12.05;;;;;;;-1.14;64.41;100470.94;5072838;28;20101;-53
2023/01/14 04:40:20;;;;;;;21.67;12.57;;;;;;;-1.36;64.30;100433.72;5073411;28;20459;-50
2023/01/14 04:42:46;;;;;;;24.88;12.30;;;;;;;-1.11;63.89;100476.13;5073407;28;20444;-57
2023/01/14 04:45:11;;;;;;;24.05;11.95;;;;;;;-1.11;64.00;100469.97;5071754;28;20031;-54
2023/01/14 04:47:38;;;;;;;26.88;14.43;;;;;;;-1.14;64.25;100470.06;5073167;28;20032;-47
2023/01/14 04:50:30;;;;;;;26.95;13.98;;;;;;;-1.24;64.32;100472.00;5073070;28;20040;-53
2023/01/14 04:52:51;;;;;;;27.48;12.70;;;;;;;-1.17;64.39;100473.63;5071858;28;20035;-53
2023/01/14 04:55:16;;;;;;;22.85;11.43;;;;;;;-1.23;64.25;100476.38;5072596;28;20024;-57
2023/01/14 04:57:42;;;;;;;27.25;13.38;;;;;;;-1.30;64.32;100476.50;5063540;28;20032;-55
2023/01/14 05:00:09;;;;;;;19.70;11.93;;;;;;;-1.21;64.50;100490.34;5063279;28;20481;-56
2023/01/14 05:02:34;;;;;;;23.00;12.68;;;;;;;-1.25;64.36;100493.94;5072840;28;20052;-54
2023/01/14 05:05:00;;;;;;;21.17;11.55;;;;;;;-1.31;64.50;100487.91;5059608;28;20032;-53
2023/01/14 05:07:25;;;;;;;24.40;12.05;;;;;;;-1.27;64.62;100486.09;5073214;28;20043;-50
2023/01/14 05:09:51;;;;;;;25.42;12.00;;;;;;;-1.22;64.20;100488.59;5073612;28;20032;-55
2023/01/14 05:12:16;;;;;;;24.48;11.68;;;;;;;-1.26;64.85;100492.19;5073368;28;20050;-58
2023/01/14 05:14:41;;;;;;;21.08;11.23;;;;;;;-1.26;63.88;100487.81;5073082;28;20157;-51
2023/01/14 05:17:07;;;;;;;24.23;11.82;;;;;;;-1.30;64.51;100486.16;5071688;28;20040;-56
2023/01/14 05:19:32;;;;;;;29.95;11.38;;;;;;;-1.30;64.89;100487.00;5072621;28;20023;-60
2023/01/14 05:21:58;;;;;;;24.98;11.82;;;;;;;-1.33;64.87;100492.34;5062011;28;20064;-53
2023/01/14 05:24:23;;;;;;;24.60;11.45;;;;;;;-1.34;64.54;100501.13;5073251;28;20075;-55
2023/01/14 05:26:48;;;;;;;21.58;12.07;;;;;;;-1.25;64.43;100491.31;5073503;28;20063;-53
2023/01/14 05:29:14;;;;;;;26.60;12.35;;;;;;;-1.31;64.47;100487.91;5074158;28;20170;-53
2023/01/14 05:31:39;;;;;;;20.88;10.43;;;;;;;-1.32;64.37;100494.06;5071495;28;20035;-53
2023/01/14 05:34:05;;;;;;;27.50;11.68;;;;;;;-1.47;64.29;100465.47;5073220;28;20930;-53
2023/01/14 05:36:30;;;;;;;22.30;10.48;;;;;;;-1.35;64.70;100493.25;5072987;28;20047;-51
2023/01/14 05:38:56;;;;;;;26.05;11.02;;;;;;;-1.31;64.58;100492.31;5074084;28;20037;-50
2023/01/14 05:41:21;;;;;;;24.20;11.02;;;;;;;-1.30;64.80;100497.53;5073481;28;20194;-55
2023/01/14 05:46:30;;;;;;;23.67;11.27;;;;;;;-1.28;64.80;100489.63;5073380;28;20029;-50
2023/01/14 05:48:56;;;;;;;21.38;11.27;;;;;;;-1.26;63.97;100494.81;5072916;28;20051;-57
2023/01/14 05:51:21;;;;;;;22.63;10.77;;;;;;;-1.21;64.36;100495.59;5073293;28;20063;-52
2023/01/14 05:53:47;;;;;;;23.65;11.25;;;;;;;-1.25;64.49;100499.19;5073648;28;20032;-60
2023/01/14 05:56:12;;;;;;;22.98;11.20;;;;;;;-1.28;64.66;100500.13;5073638;28;20108;-59
2023/01/14 05:58:38;;;;;;;20.88;11.10;;;;;;;-1.32;64.18;100504.56;5073233;28;20437;-51
2023/01/14 06:06:39;;;;;;;22.85;9.52;;;;;;;-1.46;64.99;100483.84;5072565;28;20032;-53
2023/01/14 06:09:09;;;;;;;21.73;10.43;;;;;;;-1.25;64.48;100504.44;5072693;28;20111;-60
2023/01/14 06:11:35;;;;;;;22.52;10.55;;;;;;;-1.23;64.49;100519.28;5072207;28;20063;-66
2023/01/14 06:14:02;;;;;;;22.88;11.00;;;;;;;-1.24;64.45;100507.03;5072616;28;20024;-52
2023/01/14 06:16:32;;;;;;;18.98;10.02;;;;;;;-1.22;64.17;100501.75;5072644;28;20063;-57
2023/01/14 06:18:58;;;;;;;18.83;10.80;;;;;;;-1.27;64.07;100511.50;5073030;28;20037;-57
2023/01/14 06:21:30;;;;;;;21.95;9.70;;;;;;;-1.35;63.99;100486.25;5054234;28;20040;-53
2023/01/14 06:23:57;;;;;;;22.00;10.30;;;;;;;-1.24;64.67;100512.31;5071866;28;20032;-51
2023/01/14 06:26:29;;;;;;;20.02;9.75;;;;;;;-1.27;64.77;100503.59;5071240;28;20058;-55
2023/01/14 06:28:59;;;;;;;25.02;10.43;;;;;;;-1.20;64.66;100523.63;5073032;28;20029;-55
2023/01/14 06:31:25;;;;;;;19.08;9.55;;;;;;;-1.11;63.75;100507.66;5072026;28;20024;-53
2023/01/14 06:33:51;;;;;;;13.50;8.25;;;;;;;-1.16;63.92;100512.16;5072247;28;20049;-52
2023/01/14 06:36:16;;;;;;;18.23;8.80;;;;;;;-1.14;64.14;100514.72;5072521;28;20041;-52
2023/01/14 06:38:42;;;;;;;18.67;9.15;;;;;;;-1.16;64.44;100515.63;5071931;28;20037;-52
2023/01/14 06:41:09;;;;;;;18.10;9.07;;;;;;;-1.22;64.29;100521.00;5072163;28;20504;-56
2023/01/14 06:43:36;;;;;;;22.58;10.40;;;;;;;-1.22;64.64;100510.50;5071881;28;20104;-52
2023/01/14 06:46:02;;;;;;;18.83;9.85;;;;;;;-1.19;64.09;100520.09;5071767;28;20057;-50
2023/01/14 06:48:28;;;;;;;15.02;9.18;;;;;;;-1.35;64.62;100499.38;5072063;28;20036;-54
2023/01/14 06:50:54;;;;;;;24.92;9.35;;;;;;;-1.22;64.63;100525.38;5070905;28;20153;-53
2023/01/14 06:53:20;;;;;;;21.75;9.25;;;;;;;-1.17;64.68;100521.78;5071867;28;20537;-55
2023/01/14 06:55:46;;;;;;;17.40;9.27;;;;;;;-1.14;64.27;100514.72;5071911;28;20080;-54
2023/01/14 06:58:11;;;;;;;17.63;9.52;;;;;;;-1.14;64.33;100523.50;5071673;28;20040;-57
2023/01/14 07:00:37;;;;;;;24.35;9.68;;;;;;;-1.08;63.90;100531.22;5071967;28;20077;-57
2023/01/14 07:03:03;;;;;;;17.70;9.07;;;;;;;-1.11;64.43;100531.31;5072087;28;20120;-59
2023/01/14 07:05:29;;;;;;;18.50;9.20;;;;;;;-1.08;64.38;100533.88;5071262;28;20467;-53
2023/01/14 07:07:54;;;;;;;18.85;8.75;;;;;;;-1.10;64.19;100513.75;5071677;28;20035;-54
2023/01/14 07:10:20;;;;;;;18.17;8.60;;;;;;;-1.35;63.92;100491.50;5070817;28;20039;-55
2023/01/14 07:12:50;;;;;;;19.95;9.23;;;;;;;-1.11;64.51;100539.19;5071735;28;20108;-56
2023/01/14 07:15:18;;;;;;;17.42;8.63;;;;;;;-1.09;64.41;100539.13;5071709;28;20061;-55
2023/01/14 07:17:48;;;;;;;25.15;10.10;;;;;;;-1.09;64.58;100537.38;5072518;28;20128;-57
2023/01/14 07:20:15;;;;;;;22.05;9.10;;;;;;;-1.06;63.95;100542.59;5070213;28;20024;-57
2023/01/14 07:22:40;;;;;;;21.17;9.98;;;;;;;-1.05;63.89;100546.09;5071411;28;20094;-56
2023/01/14 07:25:06;;;;;;;19.77;9.00;;;;;;;-1.06;63.99;100553.09;5071637;28;20449;-53
2023/01/14 07:27:33;;;;;;;17.90;9.15;;;;;;;-1.04;63.84;100539.94;5072010;28;20028;-53
2023/01/14 07:29:59;;;;;;;21.30;9.38;;;;;;;-1.07;64.53;100545.25;5071434;28;20514;-56
2023/01/14 07:32:25;;;;;;;18.83;9.32;;;;;;;-1.04;64.14;100545.19;5071028;28;20131;-56
2023/01/14 07:34:50;;;;;;;19.45;9.40;;;;;;;-0.98;64.19;100546.81;5071617;28;20119;-55
2023/01/14 07:37:17;;;;;;;22.02;9.15;;;;;;;-0.88;63.56;100545.72;5072063;28;20417;-56
2023/01/14 07:39:42;;;;;;;21.42;9.27;;;;;;;-0.92;63.84;100534.41;5070624;28;20529;-57
2023/01/14 07:42:08;;;;;;;23.45;9.98;;;;;;;-0.86;63.67;100559.69;5071988;28;20037;-52
2023/01/14 07:44:33;;;;;;;20.95;9.25;;;;;;;-0.98;63.52;100499.50;5071714;28;20360;-51
2023/01/14 07:46:59;;;;;;;19.35;8.45;;;;;;;-0.78;63.46;100541.97;5071118;28;20447;-55
2023/01/14 07:49:25;;;;;;;23.75;9.30;;;;;;;-0.83;63.90;100543.00;5071565;28;20036;-56
2023/01/14 07:51:51;;;;;;;16.55;8.52;;;;;;;-0.81;63.20;100552.56;5071857;28;20104;-58
2023/01/14 07:54:17;;;;;;;29.00;9.75;;;;;;;-0.84;64.00;100547.38;5072216;28;20111;-57
2023/01/14 07:56:43;;;;;;;18.17;8.23;;;;;;;-0.83;63.28;100543.84;5074036;28;20028;-62
2023/01/14 07:59:09;;;;;;;24.17;9.32;;;;;;;-0.85;63.65;100532.50;5074674;28;20147;-55
2023/01/14 08:01:35;;;;;;;23.58;9.75;;;;;;;-0.75;63.42;100541.06;5075430;28;20029;-57
2023/01/14 08:04:00;;;;;;;25.73;9.80;;;;;;;-0.77;62.91;100538.44;5074262;28;20052;-51
2023/01/14 08:06:26;;;;;;;16.10;9.18;;;;;;;-0.79;63.65;100565.69;5073699;28;20028;-55
2023/01/14 08:08:51;;;;;;;20.83;9.25;;;;;;;-0.76;63.09;100545.44;5074879;28;20039;-55
2023/01/14 08:11:17;;;;;;;19.60;8.23;;;;;;;-0.75;63.60;100549.78;5075635;28;20513;-58
2023/01/14 08:13:43;;;;;;;21.52;9.10;;;;;;;-0.80;63.31;100553.44;5074426;28;20028;-56
2023/01/14 08:16:09;;;;;;;22.25;8.70;;;;;;;-0.78;63.66;100535.88;5057071;28;20038;-51
2023/01/14 08:18:38;;;;;;;22.65;9.10;;;;;;;-0.81;63.28;100526.28;5074937;28;20048;-58
2023/01/14 08:21:06;;;;;;;22.10;8.85;;;;;;;-0.77;63.25;100538.44;5074662;28;20044;-54
2023/01/14 08:23:33;;;;;;;24.63;8.02;;;;;;;-0.80;63.92;100541.16;5075312;28;20054;-51
2023/01/14 08:26:00;;;;;;;23.55;8.93;;;;;;;-0.77;64.50;100532.34;5074530;28;20121;-53
2023/01/14 08:28:26;;;;;;;22.05;9.13;;;;;;;-0.69;63.38;100534.81;5074716;28;20036;-54
2023/01/14 08:31:03;;;;;;;18.95;9.13;;;;;;;-0.58;63.88;100538.03;5075129;28;20036;-57
2023/01/14 08:33:29;;;;;;;19.65;8.10;;;;;;;-0.58;63.10;100532.78;5075166;28;20103;-58
2023/01/14 08:35:55;;;;;;;20.63;8.52;;;;;;;-0.55;63.22;100527.44;5074233;28;20120;-56
2023/01/14 08:38:20;;;;;;;14.73;7.55;;;;;;;-0.59;62.87;100533.69;5074413;28;20354;-55
2023/01/14 08:40:48;;;;;;;21.85;9.52;;;;;;;-0.54;63.08;100534.44;5074669;28;20471;-55
2023/01/14 08:43:14;;;;;;;18.88;7.85;;;;;;;-0.56;63.37;100524.88;5074732;28;20036;-52
2023/01/14 08:45:42;;;;;;;29.75;8.77;;;;;;;-0.67;62.91;100507.56;5073989;28;20132;-51
2023/01/14 08:48:07;;;;;;;15.35;8.25;;;;;;;-0.48;62.96;100526.44;5074351;28;20459;-57
2023/01/14 08:50:32;;;;;;;15.48;8.70;;;;;;;-0.54;62.85;100518.66;5074207;28;20131;-53
2023/01/14 08:52:58;;;;;;;26.88;9.40;;;;;;;-0.45;63.00;100522.84;5074169;28;20429;-54
2023/01/14 08:55:23;;;;;;;22.13;9.02;;;;;;;-0.46;63.21;100536.88;5073878;28;20056;-57
2023/01/14 08:57:49;;;;;;;19.13;8.80;;;;;;;-0.49;63.21;100527.28;5074110;28;20032;-59
2023/01/14 09:00:15;;;;;;;23.30;9.13;;;;;;;-0.49;62.79;100527.28;5074221;28;20039;-58
2023/01/14 09:02:40;;;;;;;18.52;8.27;;;;;;;-0.44;62.51;100521.94;5073887;28;20029;-56
2023/01/14 09:05:06;;;;;;;25.38;9.30;;;;;;;-0.44;62.66;100538.59;5074100;28;20027;-55
2023/01/14 09:18:48;;;;;;;22.73;8.27;;;;;;;-0.34;62.87;100535.75;4992622;28;20053;-59
2023/01/14 09:21:13;;;;;;;22.15;8.70;;;;;;;-0.40;62.64;100528.00;4993009;28;20042;-53
2023/01/14 09:23:39;;;;;;;19.63;8.85;;;;;;;-0.36;62.78;100533.16;5029208;28;20041;-55
2023/01/14 09:26:05;;;;;;;18.35;7.80;;;;;;;-0.37;62.70;100525.28;5072995;28;20141;-56
2023/01/14 09:28:30;;;;;;;19.67;8.15;;;;;;;-0.37;62.84;100530.56;5073670;28;20056;-54
2023/01/14 09:30:55;;;;;;;19.08;8.50;;;;;;;-0.41;62.98;100524.50;5073659;28;20028;-57
2023/01/14 09:33:21;;;;;;;20.70;8.32;;;;;;;-0.38;63.11;100536.72;5072740;28;20040;-57
2023/01/14 09:35:47;;;;;;;16.48;7.70;;;;;;;-0.35;62.76;100536.63;5072957;28;20120;-56
2023/01/14 09:38:12;;;;;;;16.83;6.72;;;;;;;-0.58;63.22;100495.97;5073322;28;20072;-58
2023/01/14 09:40:39;;;;;;;19.85;8.13;;;;;;;-0.47;63.40;100520.25;5073142;28;20028;-52
2023/01/14 09:43:13;;;;;;;17.75;7.97;;;;;;;-0.41;63.66;100531.53;5072315;28;20036;-55
2023/01/14 09:45:38;;;;;;;21.98;8.65;;;;;;;-0.49;63.44;100527.28;5071541;28;20036;-56
2023/01/14 09:48:16;;;;;;;20.48;7.85;;;;;;;-0.32;63.47;100534.81;5072304;28;20090;-57
2023/01/14 09:51:02;;;;;;;20.27;8.43;;;;;;;-0.35;63.58;100526.13;5073379;28;20055;-59
2023/01/14 09:53:58;;;;;;;18.48;8.15;;;;;;;-0.30;63.67;100538.28;5071517;28;20033;-58
2023/01/14 09:56:34;;;;;;;25.63;7.72;;;;;;;-0.44;63.34;100509.66;5072535;28;20029;-54
2023/01/14 09:59:07;;;;;;;25.65;8.70;;;;;;;-0.31;63.67;100523.38;5072861;28;20029;-55
2023/01/14 10:01:51;;;;;;;21.85;8.65;;;;;;;-0.25;63.71;100529.41;5072187;28;20436;-61
2023/01/14 10:04:47;;;;;;;19.67;8.65;;;;;;;-0.20;63.38;100524.88;5072753;28;20371;-56
2023/01/14 10:07:15;;;;;;;18.17;8.25;;;;;;;-0.44;63.43;100490.38;5071218;28;20037;-59
2023/01/14 10:09:49;;;;;;;19.35;9.02;;;;;;;-0.31;63.74;100510.22;5072220;28;20334;-56
2023/01/14 10:12:26;;;;;;;19.38;8.70;;;;;;;-0.41;63.87;100492.91;5072580;28;20028;-58
2023/01/14 10:15:02;;;;;;;21.85;8.30;;;;;;;-0.32;63.83;100516.38;5072779;28;20169;-59
2023/01/14 10:17:33;;;;;;;21.52;8.63;;;;;;;-0.49;64.34;100486.97;5071236;28;20035;-57
2023/01/14 10:20:10;;;;;;;18.83;8.80;;;;;;;-0.30;64.35;100509.31;5072292;28;20410;-57
2023/01/14 10:22:43;;;;;;;17.92;8.07;;;;;;;-0.24;64.41;100508.31;5070962;28;20029;-60
2023/01/14 10:25:19;;;;;;;19.00;8.30;;;;;;;-0.26;64.11;100502.19;5071728;28;20055;-58
2023/01/14 10:27:46;;;;;;;;;;;;;;;0.02;63.56;100501.53;5073401;28;20032;-54
2023/01/14 10:30:20;;;;;;;22.00;8.20;;;;;;;-0.09;63.21;100514.06;5070816;28;19920;-57
2023/01/14 10:32:48;;;;;;;20.15;8.52;;;;;;;-0.21;63.89;100505.59;5054298;28;20460;-56
2023/01/14 10:35:15;;;;;;;17.33;8.68;;;;;;;-0.33;64.84;100516.41;5071272;28;20114;-54
2023/01/14 10:37:40;;;;;;;20.30;7.68;;;;;;;-0.33;64.69;100511.16;5071866;28;20056;-53
2023/01/14 10:40:15;;;;;;;15.77;8.25;;;;;;;-0.39;64.68;100480.59;5071878;28;20024;-52
2023/01/14 10:42:41;;;;;;;17.10;8.35;;;;;;;-0.35;64.73;100505.06;5071721;28;20468;-50
2023/01/14 10:45:11;;;;;;;18.05;7.97;;;;;;;-0.34;64.58;100505.03;5071859;28;20036;-54
2023/01/14 10:47:37;;;;;;;20.17;7.43;;;;;;;-0.33;64.82;100506.78;5071463;28;20123;-55
2023/01/14 10:50:13;;;;;;;16.70;7.72;;;;;;;-0.32;64.67;100497.09;5071409;28;20386;-56
2023/01/14 10:52:39;;;;;;;17.00;7.32;;;;;;;-0.34;64.95;100512.94;5072627;28;20115;-54
2023/01/14 10:55:10;;;;;;;20.42;8.18;;;;;;;-0.37;65.32;100499.81;5071430;28;20175;-59
2023/01/14 10:57:44;;;;;;;20.05;8.07;;;;;;;-0.40;64.76;100486.75;5072086;28;20055;-54
2023/01/14 11:00:27;;;;;;;18.45;8.35;;;;;;;-0.33;65.54;100504.13;5072520;28;20055;-56
2023/01/14 11:02:53;;;;;;;18.73;7.43;;;;;;;-0.40;65.43;100494.66;5072032;28;20028;-52
2023/01/14 11:05:40;;;;;;;20.75;7.65;;;;;;;-0.49;65.19;100452.78;5072486;28;20039;-53
2023/01/14 11:08:32;;;;;;;18.17;8.43;;;;;;;-0.22;64.98;100493.34;5072485;28;20138;-53
2023/01/14 11:11:00;;;;;;;22.48;8.80;;;;;;;-0.32;64.96;100494.47;5071215;28;20031;-54
2023/01/14 11:13:29;;;;;;;17.52;8.25;;;;;;;-0.33;65.81;100485.72;5071939;28;20035;-53
2023/01/14 11:15:54;;;;;;;19.15;8.02;;;;;;;-0.47;65.02;100443.97;5071982;28;20040;-57
2023/01/14 11:18:24;;;;;;;19.55;7.78;;;;;;;-0.23;64.63;100478.47;5069415;28;20059;-56
2023/01/14 11:21:15;;;;;;;16.80;7.55;;;;;;;-0.16;64.98;100487.91;5069687;28;20213;-53
2023/01/14 11:23:44;;;;;;;19.40;8.05;;;;;;;-0.22;65.06;100471.41;5068637;28;20024;-58
2023/01/14 11:26:23;;;;;;;18.77;7.65;;;;;;;-0.16;65.11;100487.91;5069247;28;20135;-55
2023/01/14 11:28:51;;;;;;;15.57;7.80;;;;;;;-0.12;63.98;100479.94;5071159;28;20033;-55
2023/01/14 11:31:27;;;;;;;18.63;7.20;;;;;;;-0.21;64.60;100492.44;5074254;28;20873;-56
2023/01/14 11:33:53;;;;;;;22.95;8.15;;;;;;;-0.34;65.01;100485.75;5075630;28;20052;-58
2023/01/14 11:36:23;;;;;;;19.48;7.65;;;;;;;-0.16;64.33;100500.19;5075889;28;20028;-56
2023/01/14 11:38:50;;;;;;;16.40;7.60;;;;;;;-0.32;64.94;100486.56;5075259;28;20052;-55
2023/01/14 11:41:36;;;;;;;20.80;8.32;;;;;;;-0.29;65.59;100486.47;5073782;28;20395;-57
2023/01/14 11:44:09;;;;;;;19.20;8.07;;;;;;;-0.39;65.52;100470.06;5075528;28;20071;-54
2023/01/14 11:46:36;;;;;;;20.15;8.60;;;;;;;-0.36;65.95;100492.81;5075431;28;20082;-55
2023/01/14 11:49:15;;;;;;;15.73;7.28;;;;;;;-0.23;65.76;100490.75;5075289;28;20035;-54